sensor_id;sensor_type;location;lat;lon;timestamp;P1;durP1;ratioP1;P2;durP2;ratioP2
2644;SDS011;15377;48.540;9.268;2024-03-02T00:02:12;32.73;;;15.83;;
2644;SDS011;15377;48.540;9.268;2024-03-02T00:04:38;26.43;;;14.07;;
2644;SDS011;15377;48.540;9.268;2024-03-02T00:07:03;26.30;;;13.10;;
2644;SDS011;15377;48.540;9.268;2024-03-02T00:09:29;24.00;;;14.07;;
2644;SDS011;15377;48.540;9.268;2024-03-02T00:11:55;24.20;;;14.00;;
2644;SDS011;15377;48.540;9.268;2024-03-02T00:14:20;25.57;;;15.20;;
2644;SDS011;15377;48.540;9.268;2024-03-02T00:16:46;24.60;;;13.97;;
2644;SDS011;15377;48.540;9.268;2024-03-02T00:19:11;23.33;;;15.17;;
2644;SDS011;15377;48.540;9.268;2024-03-02T00:21:37;25.63;;;14.00;;
2644;SDS011;15377;48.540;9.268;2024-03-02T00:24:17;24.60;;;13.20;;
2644;SDS011;15377;48.540;9.268;2024-03-02T00:26:46;24.92;;;13.77;;
2644;SDS011;15377;48.540;9.268;2024-03-02T00:29:14;26.77;;;14.77;;
2644;SDS011;15377;48.540;9.268;2024-03-02T00:31:41;25.53;;;13.70;;
2644;SDS011;15377;48.540;9.268;2024-03-02T00:34:07;23.27;;;13.93;;
2644;SDS011;15377;48.540;9.268;2024-03-02T00:36:32;24.67;;;12.10;;
2644;SDS011;15377;48.540;9.268;2024-03-02T00:38:58;21.43;;;11.70;;
2644;SDS011;15377;48.540;9.268;2024-03-02T00:46:21;23.97;;;12.73;;
2644;SDS011;15377;48.540;9.268;2024-03-02T00:48:51;24.30;;;13.40;;
2644;SDS011;15377;48.540;9.268;2024-03-02T00:51:21;24.53;;;13.37;;
2644;SDS011;15377;48.540;9.268;2024-03-02T00:53:48;22.87;;;14.20;;
2644;SDS011;15377;48.540;9.268;2024-03-02T00:56:14;25.10;;;12.37;;
2644;SDS011;15377;48.540;9.268;2024-03-02T00:58:40;23.70;;;13.20;;
2644;SDS011;15377;48.540;9.268;2024-03-02T01:01:05;29.37;;;13.53;;
2644;SDS011;15377;48.540;9.268;2024-03-02T01:03:32;26.20;;;15.30;;
2644;SDS011;15377;48.540;9.268;2024-03-02T01:05:58;24.20;;;11.40;;
2644;SDS011;15377;48.540;9.268;2024-03-02T01:08:24;27.20;;;14.47;;
2644;SDS011;15377;48.540;9.268;2024-03-02T01:10:49;24.80;;;14.33;;
2644;SDS011;15377;48.540;9.268;2024-03-02T01:13:14;24.17;;;12.77;;
2644;SDS011;15377;48.540;9.268;2024-03-02T01:15:40;27.83;;;13.40;;
2644;SDS011;15377;48.540;9.268;2024-03-02T01:18:05;23.60;;;13.10;;
2644;SDS011;15377;48.540;9.268;2024-03-02T01:20:31;27.90;;;15.07;;
2644;SDS011;15377;48.540;9.268;2024-03-02T01:22:56;22.93;;;13.40;;
2644;SDS011;15377;48.540;9.268;2024-03-02T01:25:22;22.30;;;11.50;;
2644;SDS011;15377;48.540;9.268;2024-03-02T01:27:47;22.67;;;12.30;;
2644;SDS011;15377;48.540;9.268;2024-03-02T01:30:12;23.10;;;12.30;;
2644;SDS011;15377;48.540;9.268;2024-03-02T01:32:38;23.67;;;12.87;;
2644;SDS011;15377;48.540;9.268;2024-03-02T01:35:04;25.03;;;12.60;;
2644;SDS011;15377;48.540;9.268;2024-03-02T01:37:30;26.83;;;14.27;;
2644;SDS011;15377;48.540;9.268;2024-03-02T01:39:55;24.13;;;12.90;;
2644;SDS011;15377;48.540;9.268;2024-03-02T01:42:21;26.30;;;12.53;;
2644;SDS011;15377;48.540;9.268;2024-03-02T01:44:47;23.13;;;14.93;;
2644;SDS011;15377;48.540;9.268;2024-03-02T01:47:12;23.20;;;12.60;;
2644;SDS011;15377;48.540;9.268;2024-03-02T01:49:38;22.73;;;11.90;;
2644;SDS011;15377;48.540;9.268;2024-03-02T01:52:04;29.90;;;14.50;;
2644;SDS011;15377;48.540;9.268;2024-03-02T01:54:29;25.73;;;13.13;;
2644;SDS011;15377;48.540;9.268;2024-03-02T01:56:55;22.93;;;12.80;;
2644;SDS011;15377;48.540;9.268;2024-03-02T01:59:20;24.85;;;12.60;;
2644;SDS011;15377;48.540;9.268;2024-03-02T02:01:46;32.10;;;16.13;;
2644;SDS011;15377;48.540;9.268;2024-03-02T02:04:11;26.90;;;14.20;;
2644;SDS011;15377;48.540;9.268;2024-03-02T02:06:38;25.40;;;14.38;;
2644;SDS011;15377;48.540;9.268;2024-03-02T02:09:03;30.77;;;14.80;;
2644;SDS011;15377;48.540;9.268;2024-03-02T02:11:29;25.37;;;13.97;;
2644;SDS011;15377;48.540;9.268;2024-03-02T02:13:54;22.53;;;13.33;;
2644;SDS011;15377;48.540;9.268;2024-03-02T02:16:20;24.98;;;12.93;;
2644;SDS011;15377;48.540;9.268;2024-03-02T02:18:46;21.53;;;12.13;;
2644;SDS011;15377;48.540;9.268;2024-03-02T02:21:12;23.10;;;11.70;;
2644;SDS011;15377;48.540;9.268;2024-03-02T02:23:37;22.17;;;11.73;;
2644;SDS011;15377;48.540;9.268;2024-03-02T02:26:03;23.43;;;12.93;;
2644;SDS011;15377;48.540;9.268;2024-03-02T02:28:28;19.80;;;11.17;;
2644;SDS011;15377;48.540;9.268;2024-03-02T02:30:54;21.23;;;10.90;;
2644;SDS011;15377;48.540;9.268;2024-03-02T02:33:21;20.75;;;11.88;;
2644;SDS011;15377;48.540;9.268;2024-03-02T02:35:46;22.40;;;13.60;;
2644;SDS011;15377;48.540;9.268;2024-03-02T02:38:12;29.07;;;14.07;;
2644;SDS011;15377;48.540;9.268;2024-03-02T02:40:37;26.60;;;13.30;;
2644;SDS011;15377;48.540;9.268;2024-03-02T02:43:03;22.50;;;12.33;;
2644;SDS011;15377;48.540;9.268;2024-03-02T02:45:28;31.30;;;12.13;;
2644;SDS011;15377;48.540;9.268;2024-03-02T02:47:54;23.60;;;13.03;;
2644;SDS011;15377;48.540;9.268;2024-03-02T02:50:19;29.93;;;13.70;;
2644;SDS011;15377;48.540;9.268;2024-03-02T02:52:45;28.77;;;14.10;;
2644;SDS011;15377;48.540;9.268;2024-03-02T02:55:11;27.20;;;14.37;;
2644;SDS011;15377;48.540;9.268;2024-03-02T02:57:39;25.95;;;13.23;;
2644;SDS011;15377;48.540;9.268;2024-03-02T03:00:10;24.10;;;12.60;;
2644;SDS011;15377;48.540;9.268;2024-03-02T03:02:43;23.08;;;11.95;;
2644;SDS011;15377;48.540;9.268;2024-03-02T03:05:10;23.92;;;13.02;;
2644;SDS011;15377;48.540;9.268;2024-03-02T03:07:36;26.75;;;13.70;;
2644;SDS011;15377;48.540;9.268;2024-03-02T03:10:03;29.20;;;13.88;;
2644;SDS011;15377;48.540;9.268;2024-03-02T03:12:29;26.55;;;14.75;;
2644;SDS011;15377;48.540;9.268;2024-03-02T03:14:56;33.70;;;16.58;;
2644;SDS011;15377;48.540;9.268;2024-03-02T03:17:22;30.97;;;15.70;;
2644;SDS011;15377;48.540;9.268;2024-03-02T03:19:48;29.90;;;14.30;;
2644;SDS011;15377;48.540;9.268;2024-03-02T03:22:13;28.80;;;14.37;;
2644;SDS011;15377;48.540;9.268;2024-03-02T03:24:38;29.80;;;13.20;;
2644;SDS011;15377;48.540;9.268;2024-03-02T03:27:04;31.17;;;14.53;;
2644;SDS011;15377;48.540;9.268;2024-03-02T03:29:29;25.37;;;12.93;;
2644;SDS011;15377;48.540;9.268;2024-03-02T03:31:55;30.07;;;14.50;;
2644;SDS011;15377;48.540;9.268;2024-03-02T03:34:20;26.27;;;14.43;;
2644;SDS011;15377;48.540;9.268;2024-03-02T03:36:45;26.37;;;13.37;;
2644;SDS011;15377;48.540;9.268;2024-03-02T03:39:11;26.23;;;14.40;;
2644;SDS011;15377;48.540;9.268;2024-03-02T03:41:36;28.73;;;14.20;;
2644;SDS011;15377;48.540;9.268;2024-03-02T03:44:02;29.90;;;13.37;;
2644;SDS011;15377;48.540;9.268;2024-03-02T03:46:28;29.58;;;12.90;;
2644;SDS011;15377;48.540;9.268;2024-03-02T03:48:54;25.53;;;11.70;;
2644;SDS011;15377;48.540;9.268;2024-03-02T03:51:20;24.23;;;11.20;;
2644;SDS011;15377;48.540;9.268;2024-03-02T03:53:47;23.08;;;11.13;;
2644;SDS011;15377;48.540;9.268;2024-03-02T03:56:13;25.43;;;11.40;;
2644;SDS011;15377;48.540;9.268;2024-03-02T03:58:38;30.97;;;14.40;;
2644;SDS011;15377;48.540;9.268;2024-03-02T04:01:04;24.50;;;13.60;;
2644;SDS011;15377;48.540;9.268;2024-03-02T04:03:29;32.93;;;14.30;;
2644;SDS011;15377;48.540;9.268;2024-03-02T04:05:55;27.27;;;13.90;;
2644;SDS011;15377;48.540;9.268;2024-03-02T04:08:21;30.57;;;13.40;;
2644;SDS011;15377;48.540;9.268;2024-03-02T04:10:46;29.67;;;16.87;;
2644;SDS011;15377;48.540;9.268;2024-03-02T04:13:11;33.37;;;16.33;;
2644;SDS011;15377;48.540;9.268;2024-03-02T04:15:37;31.50;;;16.07;;
2644;SDS011;15377;48.540;9.268;2024-03-02T04:18:02;29.60;;;15.40;;
2644;SDS011;15377;48.540;9.268;2024-03-02T04:20:28;27.80;;;13.77;;
2644;SDS011;15377;48.540;9.268;2024-03-02T04:22:54;32.13;;;14.50;;
2644;SDS011;15377;48.540;9.268;2024-03-02T04:25:20;27.60;;;14.47;;
2644;SDS011;15377;48.540;9.268;2024-03-02T04:27:45;27.93;;;14.30;;
2644;SDS011;15377;48.540;9.268;2024-03-02T04:30:10;26.43;;;13.90;;
2644;SDS011;15377;48.540;9.268;2024-03-02T04:32:36;32.27;;;14.57;;
2644;SDS011;15377;48.540;9.268;2024-03-02T04:35:01;31.40;;;14.43;;
2644;SDS011;15377;48.540;9.268;2024-03-02T04:37:27;29.17;;;14.77;;
2644;SDS011;15377;48.540;9.268;2024-03-02T04:39:52;32.73;;;16.47;;
2644;SDS011;15377;48.540;9.268;2024-03-02T04:42:18;31.00;;;16.20;;
2644;SDS011;15377;48.540;9.268;2024-03-02T04:44:43;37.80;;;15.83;;
2644;SDS011;15377;48.540;9.268;2024-03-02T04:47:08;29.23;;;14.70;;
2644;SDS011;15377;48.540;9.268;2024-03-02T04:49:34;33.67;;;15.97;;
2644;SDS011;15377;48.540;9.268;2024-03-02T04:51:59;32.73;;;15.60;;
2644;SDS011;15377;48.540;9.268;2024-03-02T04:54:24;32.63;;;15.77;;
2644;SDS011;15377;48.540;9.268;2024-03-02T04:56:50;28.60;;;14.10;;
2644;SDS011;15377;48.540;9.268;2024-03-02T04:59:16;32.70;;;15.80;;
2644;SDS011;15377;48.540;9.268;2024-03-02T05:01:42;29.15;;;15.93;;
2644;SDS011;15377;48.540;9.268;2024-03-02T05:04:08;31.90;;;15.27;;
2644;SDS011;15377;48.540;9.268;2024-03-02T05:06:33;24.23;;;12.33;;
2644;SDS011;15377;48.540;9.268;2024-03-02T05:08:59;27.83;;;13.37;;
2644;SDS011;15377;48.540;9.268;2024-03-02T05:11:24;32.80;;;14.90;;
2644;SDS011;15377;48.540;9.268;2024-03-02T05:14:07;35.03;;;14.75;;
2644;SDS011;15377;48.540;9.268;2024-03-02T05:16:33;28.70;;;13.73;;
2644;SDS011;15377;48.540;9.268;2024-03-02T05:19:05;25.95;;;13.73;;
2644;SDS011;15377;48.540;9.268;2024-03-02T05:21:33;33.10;;;16.45;;
2644;SDS011;15377;48.540;9.268;2024-03-02T05:23:59;33.57;;;15.73;;
2644;SDS011;15377;48.540;9.268;2024-03-02T05:26:24;38.67;;;17.10;;
2644;SDS011;15377;48.540;9.268;2024-03-02T05:28:50;30.07;;;15.87;;
2644;SDS011;15377;48.540;9.268;2024-03-02T05:31:16;33.70;;;16.73;;
2644;SDS011;15377;48.540;9.268;2024-03-02T05:33:41;31.80;;;16.20;;
2644;SDS011;15377;48.540;9.268;2024-03-02T05:36:07;30.20;;;16.37;;
2644;SDS011;15377;48.540;9.268;2024-03-02T05:38:36;27.80;;;16.63;;
2644;SDS011;15377;48.540;9.268;2024-03-02T05:41:01;30.85;;;16.52;;
2644;SDS011;15377;48.540;9.268;2024-03-02T05:43:27;31.80;;;14.63;;
2644;SDS011;15377;48.540;9.268;2024-03-02T05:45:52;33.10;;;15.23;;
2644;SDS011;15377;48.540;9.268;2024-03-02T05:48:17;30.37;;;18.10;;
2644;SDS011;15377;48.540;9.268;2024-03-02T05:50:43;37.93;;;16.90;;
2644;SDS011;15377;48.540;9.268;2024-03-02T05:53:08;31.70;;;15.00;;
2644;SDS011;15377;48.540;9.268;2024-03-02T05:55:33;33.67;;;16.10;;
2644;SDS011;15377;48.540;9.268;2024-03-02T05:57:59;31.03;;;16.93;;
2644;SDS011;15377;48.540;9.268;2024-03-02T06:00:42;28.13;;;14.43;;
2644;SDS011;15377;48.540;9.268;2024-03-02T06:03:07;30.03;;;15.93;;
2644;SDS011;15377;48.540;9.268;2024-03-02T06:05:34;29.10;;;13.85;;
2644;SDS011;15377;48.540;9.268;2024-03-02T06:07:59;36.00;;;17.00;;
2644;SDS011;15377;48.540;9.268;2024-03-02T06:10:25;31.30;;;14.07;;
2644;SDS011;15377;48.540;9.268;2024-03-02T06:12:50;37.73;;;16.83;;
2644;SDS011;15377;48.540;9.268;2024-03-02T06:15:16;31.67;;;17.80;;
2644;SDS011;15377;48.540;9.268;2024-03-02T06:17:42;34.70;;;17.90;;
2644;SDS011;15377;48.540;9.268;2024-03-02T06:20:07;30.67;;;16.00;;
2644;SDS011;15377;48.540;9.268;2024-03-02T06:22:33;26.80;;;14.10;;
2644;SDS011;15377;48.540;9.268;2024-03-02T06:24:59;31.60;;;12.98;;
2644;SDS011;15377;48.540;9.268;2024-03-02T06:27:25;28.80;;;13.13;;
2644;SDS011;15377;48.540;9.268;2024-03-02T06:29:50;32.60;;;15.00;;
2644;SDS011;15377;48.540;9.268;2024-03-02T06:32:16;38.10;;;16.50;;
2644;SDS011;15377;48.540;9.268;2024-03-02T06:34:42;31.30;;;15.10;;
2644;SDS011;15377;48.540;9.268;2024-03-02T06:37:07;29.07;;;15.50;;
2644;SDS011;15377;48.540;9.268;2024-03-02T06:39:32;31.33;;;15.47;;
2644;SDS011;15377;48.540;9.268;2024-03-02T06:41:59;35.97;;;15.52;;
2644;SDS011;15377;48.540;9.268;2024-03-02T06:44:25;30.80;;;15.63;;
2644;SDS011;15377;48.540;9.268;2024-03-02T06:46:50;34.43;;;17.20;;
2644;SDS011;15377;48.540;9.268;2024-03-02T06:49:15;35.40;;;16.37;;
2644;SDS011;15377;48.540;9.268;2024-03-02T06:51:43;30.52;;;15.30;;
2644;SDS011;15377;48.540;9.268;2024-03-02T06:54:09;29.40;;;15.35;;
2644;SDS011;15377;48.540;9.268;2024-03-02T06:56:34;28.23;;;15.33;;
2644;SDS011;15377;48.540;9.268;2024-03-02T06:59:00;31.20;;;16.60;;
2644;SDS011;15377;48.540;9.268;2024-03-02T07:01:25;32.73;;;14.70;;
2644;SDS011;15377;48.540;9.268;2024-03-02T07:03:51;34.83;;;15.93;;
2644;SDS011;15377;48.540;9.268;2024-03-02T07:06:16;32.83;;;16.40;;
2644;SDS011;15377;48.540;9.268;2024-03-02T07:08:42;28.53;;;14.60;;
2644;SDS011;15377;48.540;9.268;2024-03-02T07:11:07;31.67;;;16.47;;
2644;SDS011;15377;48.540;9.268;2024-03-02T07:13:32;29.83;;;13.20;;
2644;SDS011;15377;48.540;9.268;2024-03-02T07:15:58;39.00;;;17.13;;
2644;SDS011;15377;48.540;9.268;2024-03-02T07:18:29;38.08;;;17.42;;
2644;SDS011;15377;48.540;9.268;2024-03-02T07:20:55;29.38;;;15.98;;
2644;SDS011;15377;48.540;9.268;2024-03-02T07:23:24;29.42;;;16.13;;
2644;SDS011;15377;48.540;9.268;2024-03-02T07:25:52;32.58;;;16.90;;
2644;SDS011;15377;48.540;9.268;2024-03-02T07:28:21;28.50;;;15.60;;
2644;SDS011;15377;48.540;9.268;2024-03-02T07:30:50;31.63;;;15.88;;
2644;SDS011;15377;48.540;9.268;2024-03-02T07:33:26;30.30;;;16.33;;
2644;SDS011;15377;48.540;9.268;2024-03-02T07:35:51;26.27;;;13.57;;
2644;SDS011;15377;48.540;9.268;2024-03-02T07:38:17;27.57;;;14.93;;
2644;SDS011;15377;48.540;9.268;2024-03-02T07:40:42;26.67;;;13.80;;
2644;SDS011;15377;48.540;9.268;2024-03-02T07:43:08;33.70;;;16.63;;
2644;SDS011;15377;48.540;9.268;2024-03-02T07:45:33;24.57;;;13.60;;
2644;SDS011;15377;48.540;9.268;2024-03-02T07:48:01;23.73;;;13.00;;
2644;SDS011;15377;48.540;9.268;2024-03-02T07:50:28;29.50;;;18.10;;
2644;SDS011;15377;48.540;9.268;2024-03-02T07:52:53;24.80;;;12.37;;
2644;SDS011;15377;48.540;9.268;2024-03-02T07:55:19;21.60;;;12.60;;
2644;SDS011;15377;48.540;9.268;2024-03-02T07:57:44;24.77;;;13.30;;
2644;SDS011;15377;48.540;9.268;2024-03-02T08:00:10;22.67;;;13.17;;
2644;SDS011;15377;48.540;9.268;2024-03-02T08:02:35;17.97;;;10.40;;
2644;SDS011;15377;48.540;9.268;2024-03-02T08:05:01;19.87;;;11.47;;
2644;SDS011;15377;48.540;9.268;2024-03-02T08:07:26;25.70;;;13.73;;
2644;SDS011;15377;48.540;9.268;2024-03-02T08:09:51;15.50;;;8.97;;
2644;SDS011;15377;48.540;9.268;2024-03-02T08:12:17;40.67;;;22.10;;
2644;SDS011;15377;48.540;9.268;2024-03-02T08:14:44;20.17;;;12.03;;
2644;SDS011;15377;48.540;9.268;2024-03-02T08:17:10;19.70;;;12.00;;
2644;SDS011;15377;48.540;9.268;2024-03-02T08:19:36;40.00;;;23.73;;
2644;SDS011;15377;48.540;9.268;2024-03-02T08:22:02;21.90;;;12.97;;
2644;SDS011;15377;48.540;9.268;2024-03-02T08:24:28;74.20;;;34.57;;
2644;SDS011;15377;48.540;9.268;2024-03-02T08:26:54;29.60;;;16.80;;
2644;SDS011;15377;48.540;9.268;2024-03-02T08:29:19;59.53;;;33.17;;
2644;SDS011;15377;48.540;9.268;2024-03-02T08:31:44;45.53;;;26.90;;
2644;SDS011;15377;48.540;9.268;2024-03-02T08:34:10;49.40;;;28.77;;
2644;SDS011;15377;48.540;9.268;2024-03-02T08:36:35;37.93;;;22.03;;
2644;SDS011;15377;48.540;9.268;2024-03-02T08:39:01;18.70;;;12.30;;
2644;SDS011;15377;48.540;9.268;2024-03-02T08:41:27;23.10;;;12.80;;
2644;SDS011;15377;48.540;9.268;2024-03-02T08:43:52;18.03;;;10.87;;
2644;SDS011;15377;48.540;9.268;2024-03-02T08:46:18;16.53;;;10.30;;
2644;SDS011;15377;48.540;9.268;2024-03-02T08:48:43;13.23;;;7.33;;
2644;SDS011;15377;48.540;9.268;2024-03-02T08:51:08;13.60;;;6.87;;
2644;SDS011;15377;48.540;9.268;2024-03-02T08:53:35;13.40;;;6.37;;
2644;SDS011;15377;48.540;9.268;2024-03-02T08:56:01;11.83;;;5.73;;
2644;SDS011;15377;48.540;9.268;2024-03-02T08:58:26;12.20;;;5.83;;
2644;SDS011;15377;48.540;9.268;2024-03-02T09:00:52;10.60;;;5.83;;
2644;SDS011;15377;48.540;9.268;2024-03-02T09:03:17;11.10;;;5.80;;
2644;SDS011;15377;48.540;9.268;2024-03-02T09:05:43;11.80;;;6.77;;
2644;SDS011;15377;48.540;9.268;2024-03-02T09:08:08;11.00;;;5.00;;
2644;SDS011;15377;48.540;9.268;2024-03-02T09:10:33;12.33;;;6.03;;
2644;SDS011;15377;48.540;9.268;2024-03-02T09:12:59;18.90;;;10.00;;
2644;SDS011;15377;48.540;9.268;2024-03-02T09:15:25;16.87;;;9.60;;
2644;SDS011;15377;48.540;9.268;2024-03-02T09:17:50;13.73;;;8.20;;
2644;SDS011;15377;48.540;9.268;2024-03-02T09:20:16;14.67;;;7.50;;
2644;SDS011;15377;48.540;9.268;2024-03-02T09:22:41;14.17;;;7.27;;
2644;SDS011;15377;48.540;9.268;2024-03-02T09:25:07;11.77;;;6.77;;
2644;SDS011;15377;48.540;9.268;2024-03-02T09:27:35;10.50;;;5.40;;
2644;SDS011;15377;48.540;9.268;2024-03-02T09:30:01;10.33;;;4.90;;
2644;SDS011;15377;48.540;9.268;2024-03-02T09:32:27;10.23;;;5.70;;
2644;SDS011;15377;48.540;9.268;2024-03-02T09:34:53;11.43;;;4.73;;
2644;SDS011;15377;48.540;9.268;2024-03-02T09:37:18;11.30;;;5.60;;
2644;SDS011;15377;48.540;9.268;2024-03-02T09:39:44;10.30;;;5.47;;
2644;SDS011;15377;48.540;9.268;2024-03-02T09:42:10;17.83;;;10.03;;
2644;SDS011;15377;48.540;9.268;2024-03-02T09:44:37;14.80;;;8.50;;
2644;SDS011;15377;48.540;9.268;2024-03-02T09:47:03;8.57;;;5.07;;
2644;SDS011;15377;48.540;9.268;2024-03-02T09:49:29;12.13;;;6.07;;
2644;SDS011;15377;48.540;9.268;2024-03-02T09:51:54;12.57;;;6.50;;
2644;SDS011;15377;48.540;9.268;2024-03-02T09:54:20;9.23;;;4.67;;
2644;SDS011;15377;48.540;9.268;2024-03-02T09:56:46;9.73;;;5.20;;
2644;SDS011;15377;48.540;9.268;2024-03-02T09:59:11;8.80;;;4.60;;
2644;SDS011;15377;48.540;9.268;2024-03-02T10:01:38;8.23;;;4.30;;
2644;SDS011;15377;48.540;9.268;2024-03-02T10:04:03;8.40;;;4.30;;
2644;SDS011;15377;48.540;9.268;2024-03-02T10:06:30;9.23;;;4.40;;
2644;SDS011;15377;48.540;9.268;2024-03-02T10:08:55;8.73;;;3.93;;
2644;SDS011;15377;48.540;9.268;2024-03-02T10:14:06;9.80;;;3.73;;
2644;SDS011;15377;48.540;9.268;2024-03-02T10:16:33;9.40;;;5.43;;
2644;SDS011;15377;48.540;9.268;2024-03-02T10:19:14;10.37;;;5.30;;
2644;SDS011;15377;48.540;9.268;2024-03-02T10:21:47;9.40;;;4.77;;
2644;SDS011;15377;48.540;9.268;2024-03-02T10:24:14;10.47;;;5.27;;
2644;SDS011;15377;48.540;9.268;2024-03-02T10:26:40;8.27;;;3.57;;
2644;SDS011;15377;48.540;9.268;2024-03-02T10:29:07;8.33;;;4.13;;
2644;SDS011;15377;48.540;9.268;2024-03-02T10:31:33;7.20;;;3.40;;
2644;SDS011;15377;48.540;9.268;2024-03-02T10:33:59;8.10;;;4.57;;
2644;SDS011;15377;48.540;9.268;2024-03-02T10:36:25;8.30;;;4.50;;
2644;SDS011;15377;48.540;9.268;2024-03-02T10:38:51;8.77;;;5.00;;
2644;SDS011;15377;48.540;9.268;2024-03-02T10:41:20;7.47;;;3.40;;
2644;SDS011;15377;48.540;9.268;2024-03-02T10:43:49;7.40;;;3.50;;
2644;SDS011;15377;48.540;9.268;2024-03-02T10:46:18;8.50;;;4.50;;
2644;SDS011;15377;48.540;9.268;2024-03-02T10:48:44;7.70;;;3.70;;
2644;SDS011;15377;48.540;9.268;2024-03-02T10:51:11;16.53;;;9.83;;
2644;SDS011;15377;48.540;9.268;2024-03-02T10:53:36;26.33;;;17.50;;
2644;SDS011;15377;48.540;9.268;2024-03-02T10:56:02;8.63;;;4.23;;
2644;SDS011;15377;48.540;9.268;2024-03-02T10:58:32;9.50;;;5.00;;
2644;SDS011;15377;48.540;9.268;2024-03-02T11:01:02;10.77;;;4.60;;
2644;SDS011;15377;48.540;9.268;2024-03-02T11:03:29;8.70;;;4.70;;
2644;SDS011;15377;48.540;9.268;2024-03-02T11:05:58;9.57;;;4.47;;
2644;SDS011;15377;48.540;9.268;2024-03-02T11:08:25;9.10;;;4.33;;
2644;SDS011;15377;48.540;9.268;2024-03-02T11:10:59;10.83;;;4.93;;
2644;SDS011;15377;48.540;9.268;2024-03-02T11:13:32;7.60;;;4.13;;
2644;SDS011;15377;48.540;9.268;2024-03-02T11:15:59;8.90;;;4.03;;
2644;SDS011;15377;48.540;9.268;2024-03-02T11:18:31;7.83;;;3.50;;
2644;SDS011;15377;48.540;9.268;2024-03-02T11:20:57;8.33;;;3.63;;
2644;SDS011;15377;48.540;9.268;2024-03-02T11:23:33;7.73;;;3.50;;
2644;SDS011;15377;48.540;9.268;2024-03-02T11:28:48;8.00;;;3.70;;
2644;SDS011;15377;48.540;9.268;2024-03-02T11:31:13;7.67;;;3.17;;
2644;SDS011;15377;48.540;9.268;2024-03-02T11:33:39;6.27;;;2.30;;
2644;SDS011;15377;48.540;9.268;2024-03-02T11:36:07;6.50;;;2.47;;
2644;SDS011;15377;48.540;9.268;2024-03-02T11:38:34;7.10;;;2.57;;
2644;SDS011;15377;48.540;9.268;2024-03-02T11:41:01;6.80;;;2.53;;
2644;SDS011;15377;48.540;9.268;2024-03-02T11:43:28;5.37;;;1.60;;
2644;SDS011;15377;48.540;9.268;2024-03-02T11:46:00;6.10;;;2.20;;
2644;SDS011;15377;48.540;9.268;2024-03-02T11:48:26;6.20;;;2.10;;
2644;SDS011;15377;48.540;9.268;2024-03-02T11:50:52;6.60;;;2.20;;
2644;SDS011;15377;48.540;9.268;2024-03-02T11:53:18;6.37;;;1.97;;
2644;SDS011;15377;48.540;9.268;2024-03-02T11:55:45;6.90;;;2.10;;
2644;SDS011;15377;48.540;9.268;2024-03-02T11:58:11;7.07;;;2.20;;
2644;SDS011;15377;48.540;9.268;2024-03-02T12:00:38;5.70;;;1.77;;
2644;SDS011;15377;48.540;9.268;2024-03-02T12:03:05;5.60;;;1.90;;
2644;SDS011;15377;48.540;9.268;2024-03-02T12:05:32;6.03;;;1.70;;
2644;SDS011;15377;48.540;9.268;2024-03-02T12:07:58;6.23;;;1.87;;
2644;SDS011;15377;48.540;9.268;2024-03-02T12:10:25;6.20;;;2.40;;
2644;SDS011;15377;48.540;9.268;2024-03-02T12:13:04;6.43;;;2.37;;
2644;SDS011;15377;48.540;9.268;2024-03-02T12:15:36;6.17;;;2.10;;
2644;SDS011;15377;48.540;9.268;2024-03-02T12:18:03;5.93;;;2.20;;
2644;SDS011;15377;48.540;9.268;2024-03-02T12:20:29;6.00;;;2.00;;
2644;SDS011;15377;48.540;9.268;2024-03-02T12:23:00;6.10;;;1.80;;
2644;SDS011;15377;48.540;9.268;2024-03-02T12:25:27;6.10;;;1.83;;
2644;SDS011;15377;48.540;9.268;2024-03-02T12:27:56;5.60;;;1.80;;
2644;SDS011;15377;48.540;9.268;2024-03-02T12:30:23;5.63;;;1.63;;
2644;SDS011;15377;48.540;9.268;2024-03-02T12:32:48;6.50;;;1.97;;
2644;SDS011;15377;48.540;9.268;2024-03-02T12:35:15;6.10;;;1.67;;
2644;SDS011;15377;48.540;9.268;2024-03-02T12:37:49;6.20;;;2.10;;
2644;SDS011;15377;48.540;9.268;2024-03-02T12:40:17;7.03;;;2.20;;
2644;SDS011;15377;48.540;9.268;2024-03-02T12:42:44;6.00;;;1.90;;
2644;SDS011;15377;48.540;9.268;2024-03-02T12:45:10;5.43;;;1.50;;
2644;SDS011;15377;48.540;9.268;2024-03-02T12:47:37;5.93;;;1.73;;
2644;SDS011;15377;48.540;9.268;2024-03-02T12:50:05;6.07;;;1.70;;
2644;SDS011;15377;48.540;9.268;2024-03-02T12:52:31;5.67;;;1.80;;
2644;SDS011;15377;48.540;9.268;2024-03-02T12:54:58;5.67;;;1.63;;
2644;SDS011;15377;48.540;9.268;2024-03-02T12:57:25;5.90;;;1.87;;
2644;SDS011;15377;48.540;9.268;2024-03-02T12:59:52;7.00;;;1.80;;
2644;SDS011;15377;48.540;9.268;2024-03-02T13:02:17;6.60;;;1.70;;
2644;SDS011;15377;48.540;9.268;2024-03-02T13:04:43;7.40;;;1.87;;
2644;SDS011;15377;48.540;9.268;2024-03-02T13:07:09;5.80;;;1.60;;
2644;SDS011;15377;48.540;9.268;2024-03-02T13:09:38;5.60;;;1.67;;
2644;SDS011;15377;48.540;9.268;2024-03-02T13:12:04;5.80;;;1.80;;
2644;SDS011;15377;48.540;9.268;2024-03-02T13:14:32;5.50;;;1.90;;
2644;SDS011;15377;48.540;9.268;2024-03-02T13:16:58;6.13;;;1.50;;
2644;SDS011;15377;48.540;9.268;2024-03-02T13:19:25;5.80;;;1.90;;
2644;SDS011;15377;48.540;9.268;2024-03-02T13:21:50;5.93;;;2.03;;
2644;SDS011;15377;48.540;9.268;2024-03-02T13:24:16;6.17;;;1.90;;
2644;SDS011;15377;48.540;9.268;2024-03-02T13:26:41;6.20;;;2.20;;
2644;SDS011;15377;48.540;9.268;2024-03-02T13:29:06;6.10;;;2.00;;
2644;SDS011;15377;48.540;9.268;2024-03-02T13:31:32;5.87;;;1.80;;
2644;SDS011;15377;48.540;9.268;2024-03-02T13:33:58;5.27;;;1.63;;
2644;SDS011;15377;48.540;9.268;2024-03-02T13:36:23;5.60;;;1.80;;
2644;SDS011;15377;48.540;9.268;2024-03-02T13:38:49;5.53;;;1.70;;
2644;SDS011;15377;48.540;9.268;2024-03-02T13:41:14;5.60;;;1.60;;
2644;SDS011;15377;48.540;9.268;2024-03-02T13:43:40;5.30;;;1.60;;
2644;SDS011;15377;48.540;9.268;2024-03-02T13:46:05;5.90;;;1.70;;
2644;SDS011;15377;48.540;9.268;2024-03-02T13:48:31;6.03;;;1.50;;
2644;SDS011;15377;48.540;9.268;2024-03-02T13:50:57;5.40;;;1.60;;
2644;SDS011;15377;48.540;9.268;2024-03-02T13:53:22;5.17;;;1.47;;
2644;SDS011;15377;48.540;9.268;2024-03-02T13:55:48;5.57;;;1.50;;
2644;SDS011;15377;48.540;9.268;2024-03-02T13:58:14;5.50;;;1.63;;
2644;SDS011;15377;48.540;9.268;2024-03-02T14:00:39;5.63;;;1.60;;
2644;SDS011;15377;48.540;9.268;2024-03-02T14:03:08;5.40;;;1.53;;
2644;SDS011;15377;48.540;9.268;2024-03-02T14:05:33;5.97;;;2.03;;
2644;SDS011;15377;48.540;9.268;2024-03-02T14:07:59;5.80;;;1.60;;
2644;SDS011;15377;48.540;9.268;2024-03-02T14:10:27;6.13;;;1.50;;
2644;SDS011;15377;48.540;9.268;2024-03-02T14:12:53;5.50;;;1.67;;
2644;SDS011;15377;48.540;9.268;2024-03-02T14:15:20;6.63;;;2.10;;
2644;SDS011;15377;48.540;9.268;2024-03-02T14:17:46;5.70;;;1.90;;
2644;SDS011;15377;48.540;9.268;2024-03-02T14:20:11;5.50;;;1.80;;
2644;SDS011;15377;48.540;9.268;2024-03-02T14:22:38;5.70;;;1.70;;
2644;SDS011;15377;48.540;9.268;2024-03-02T14:25:03;5.50;;;1.60;;
2644;SDS011;15377;48.540;9.268;2024-03-02T14:27:29;5.53;;;1.67;;
2644;SDS011;15377;48.540;9.268;2024-03-02T14:29:55;5.53;;;1.70;;
2644;SDS011;15377;48.540;9.268;2024-03-02T14:32:21;6.83;;;1.97;;
2644;SDS011;15377;48.540;9.268;2024-03-02T14:34:46;6.90;;;2.40;;
2644;SDS011;15377;48.540;9.268;2024-03-02T14:37:12;5.70;;;1.83;;
2644;SDS011;15377;48.540;9.268;2024-03-02T14:39:38;5.40;;;1.70;;
2644;SDS011;15377;48.540;9.268;2024-03-02T14:42:04;6.73;;;2.10;;
2644;SDS011;15377;48.540;9.268;2024-03-02T14:44:30;6.00;;;2.00;;
2644;SDS011;15377;48.540;9.268;2024-03-02T14:46:55;7.10;;;2.47;;
2644;SDS011;15377;48.540;9.268;2024-03-02T14:49:23;6.80;;;2.40;;